Latest Weather Observations for Charles Point

IDD60901

Issued at 11:01 pm CST Monday 27 April 2015 (issued every 10 minutes, with the page automatically refreshed every 10 minutes)

About weather observations | Map of Darwin area stations | Latest observations for Darwin area | Other Formats
Station Details ID: 014031 Name: CHARLES POINT Lat: -12.39 Lon: 130.63 Height: 14.0 m
Data from the previous 72 hours. | See also: Recent months for locations in Northern Territory
Date/Time
CST
Tmp

°C
App
Tmp
°C
Dew
Point
°C
Rel
Hum
%
Delta-T

°C
Wind Press
QNH
hPa
Press
MSL
hPa
Rain
since
9 am
mm
Dir
 
Spd
km/h
Gust
km/h
Spd
kts
Gust
kts
27/11:00pm 22.1 24.0 18.5 80 2.3 SSW 6 7 3 4 1014.2 1014.1 0.0
27/10:30pm 22.3 24.7 18.9 81 2.1 SSW 4 6 2 3 1014.4 1014.3 0.0
27/10:00pm 22.7 24.6 18.9 79 2.4 SSW 7 11 4 6 1014.7 1014.6 0.0
27/09:30pm 22.3 25.7 19.3 83 1.9 CALM 0 0 0 0 1014.6 1014.5 0.0
27/09:00pm 22.5 25.7 18.9 80 2.3 CALM 0 0 0 0 1014.2 1014.1 0.0
27/08:30pm 22.7 25.9 18.9 79 2.4 CALM 0 0 0 0 1013.9 1013.8 0.0
27/08:00pm 23.1 26.3 18.8 77 2.7 CALM 0 0 0 0 1013.6 1013.5 0.0
27/07:30pm 23.6 26.9 19.1 76 2.9 CALM 0 4 0 2 1013.3 1013.2 0.0
27/07:00pm 23.9 26.9 18.5 72 3.4 CALM 0 4 0 2 1013.1 1013.0 0.0
27/06:30pm 25.1 28.4 19.2 70 3.8 CALM 0 0 0 0 1012.8 1012.7 0.0
27/06:00pm 27.0 30.5 19.6 64 4.8 CALM 0 0 0 0 1012.4 1012.3 0.0
27/05:30pm 29.3 32.2 19.0 53 6.7 NE 2 4 1 2 1011.9 1011.8 0.0
27/05:00pm 30.3 31.0 15.6 41 9.1 NE 6 9 3 5 1011.5 1011.4 0.0
27/04:30pm 30.7 31.1 15.2 39 9.5 NE 7 11 4 6 1011.2 1011.1 0.0
27/04:00pm 31.9 31.8 13.2 32 11.2 ENE 6 9 3 5 1011.1 1011.0 0.0
27/03:30pm 31.6 31.2 12.9 32 11.2 ESE 7 11 4 6 1011.1 1011.0 0.0
27/03:00pm 31.8 31.9 14.0 34 10.8 SE 6 11 3 6 1011.2 1011.1 0.0
27/02:30pm 30.6 30.4 13.0 34 10.5 SE 6 11 3 6 1011.5 1011.4 0.0
27/02:00pm 30.8 30.6 13.6 35 10.3 SE 7 13 4 7 1011.9 1011.8 0.0
27/01:30pm 30.2 30.1 13.9 37 9.8 SE 7 13 4 7 1012.2 1012.1 0.0
27/01:00pm 29.6 29.0 13.4 37 9.7 SE 9 15 5 8 1012.7 1012.6 0.0
27/12:30pm 28.8 27.9 12.7 37 9.5 SE 9 17 5 9 1012.9 1012.8 0.0
27/12:00pm 28.5 26.3 12.0 36 9.6 SE 15 24 8 13 1013.1 1013.0 0.0
27/11:30am 28.4 26.0 11.5 35 9.7 SE 15 30 8 16 1013.5 1013.4 0.0
27/11:00am 28.1 26.3 13.2 39 8.8 ESE 15 26 8 14 1013.8 1013.7 0.0
27/10:30am 27.5 26.0 13.1 41 8.5 SE 13 24 7 13 1014.2 1014.1 0.0
27/10:00am 27.3 25.2 13.6 43 8.1 ESE 17 26 9 14 1014.5 1014.4 0.0
27/09:30am 26.0 24.4 12.8 44 7.7 ESE 13 22 7 12 1014.5 1014.4 0.0
27/09:00am 25.3 23.4 11.8 43 7.7 SE 13 26 7 14 1014.5 1014.4 0.0
27/08:30am 24.2 22.5 11.2 44 7.3 SE 11 19 6 10 1014.3 1014.2 0.0
27/08:00am 23.3 21.0 10.4 44 7.1 SE 13 20 7 11 1013.9 1013.8 0.0
27/07:30am 22.4 20.0 9.9 45 6.8 SSE 13 19 7 10 1013.4 1013.3 0.0
27/07:00am 22.5 19.9 9.3 43 7.1 SSE 13 20 7 11 1013.0 1012.9 0.0
27/06:30am 22.7 20.2 9.8 44 7.0 SE 13 20 7 11 1012.7 1012.6 0.0
27/06:00am 23.3 20.9 10.0 43 7.3 SE 13 19 7 10 1012.3 1012.2 0.0
27/05:30am 23.4 21.0 10.1 43 7.3 SE 13 22 7 12 1012.2 1012.1 0.0
27/05:00am 23.4 21.1 10.5 44 7.1 SE 13 22 7 12 1012.3 1012.2 0.0
27/04:30am 23.0 20.7 10.4 45 6.9 SE 13 20 7 11 1012.3 1012.2 0.0
27/04:00am 23.0 21.2 10.8 46 6.8 SE 11 17 6 9 1012.4 1012.3 0.0
27/03:30am 22.9 21.2 11.3 48 6.5 SE 11 17 6 9 1012.3 1012.2 0.0
27/03:00am 23.1 21.1 11.5 48 6.5 SSE 13 22 7 12 1012.3 1012.2 0.0
27/02:30am 23.2 21.7 11.9 49 6.4 SSE 11 17 6 9 1012.3 1012.2 0.0
27/02:00am 22.7 21.6 12.0 50 6.0 SSE 9 15 5 8 1012.6 1012.5 0.0
27/01:30am 22.5 22.0 12.7 54 5.6 SSE 7 11 4 6 1012.8 1012.7 0.0
27/01:00am 23.0 22.6 12.9 53 5.8 SSE 7 11 4 6 1013.0 1012.9 0.0
27/12:30am 24.3 23.3 12.3 47 6.9 SSE 9 17 5 9 1013.4 1013.3 0.0
27/12:00am 24.4 23.6 13.0 49 6.6 SSE 9 13 5 7 1013.5 1013.4 0.0
 
Date/Time
CST
Tmp

°C
App
Tmp
°C
Dew
Point
°C
Rel
Hum
%
Delta-T

°C
Wind Press
QNH
hPa
Press
MSL
hPa
Rain
since
9 am
mm
Dir
 
Spd
km/h
Gust
km/h
Spd
kts
Gust
kts
26/11:30pm 24.6 23.9 13.2 49 6.6 SSE 9 17 5 9 1013.7 1013.6 0.0
26/11:00pm 23.5 23.9 16.3 64 4.4 S 9 13 5 7 1013.8 1013.7 0.0
26/10:30pm 23.6 24.8 17.3 67 3.9 S 7 11 4 6 1013.9 1013.8 0.0
26/10:00pm 23.9 24.8 17.6 68 3.9 S 9 13 5 7 1014.0 1013.9 0.0
26/09:30pm 22.3 24.7 18.9 81 2.1 SE 4 6 2 3 1013.9 1013.8 0.0
26/09:00pm 22.8 25.7 19.0 79 2.4 ESE 2 4 1 2 1013.8 1013.7 0.0
26/08:30pm 23.6 26.0 18.7 74 3.1 E 4 6 2 3 1013.4 1013.3 0.0
26/08:00pm 24.1 26.3 18.3 70 3.7 E 4 7 2 4 1013.0 1012.9 0.0
26/07:30pm 23.5 25.8 18.6 74 3.1 SE 4 4 2 2 1012.5 1012.4 0.0
26/07:00pm 24.3 27.6 19.1 73 3.3 CALM 0 0 0 0 1012.1 1012.0 0.0
26/06:30pm 25.8 29.2 19.4 67 4.1 CALM 0 0 0 0 1011.7 1011.6 0.0
26/06:00pm 27.4 30.4 20.0 64 4.8 SSE 4 4 2 2 1011.3 1011.2 0.0
26/05:30pm 29.5 31.9 18.0 50 7.3 SSE 2 4 1 2 1011.0 1010.9 0.0
26/05:00pm 30.6 31.3 15.5 40 9.3 SSE 6 7 3 4 1010.8 1010.7 0.0
26/04:30pm 31.7 32.8 15.6 37 10.0 ESE 4 7 2 4 1010.6 1010.5 0.0
26/04:00pm 31.9 31.9 14.1 34 10.8 E 7 13 4 7 1010.6 1010.5 0.0
26/03:30pm 32.1 31.8 13.3 31 11.3 E 7 13 4 7 1010.8 1010.7 0.0
26/03:00pm 32.0 31.2 12.8 31 11.5 E 9 17 5 9 1011.0 1010.9 0.0
26/02:30pm 31.7 30.8 12.5 31 11.4 ESE 9 19 5 10 1011.3 1011.2 0.0
26/02:00pm 31.8 30.7 13.1 32 11.2 ESE 11 20 6 11 1011.6 1011.5 0.0
26/01:30pm 31.6 30.2 13.4 33 10.9 ESE 13 22 7 12 1011.8 1011.7 0.0
26/01:00pm 30.7 30.0 14.3 36 10.0 ESE 11 22 6 12 1012.2 1012.1 0.0
26/12:30pm 30.2 29.8 16.2 42 8.7 SE 13 24 7 13 1012.7 1012.6 0.0
26/12:00pm 29.9 28.7 14.0 37 9.6 ESE 13 19 7 10 1013.1 1013.0 0.0
26/11:30am 29.7 29.3 16.1 43 8.4 SE 13 26 7 14 1013.6 1013.5 0.0
26/11:00am 28.9 27.7 16.1 46 7.9 SE 17 26 9 14 1013.8 1013.7 0.0
26/10:30am 28.3 27.9 16.2 47 7.5 SE 13 26 7 14 1014.0 1013.9 0.0
26/10:00am 27.3 26.9 15.3 48 7.3 SSE 11 20 6 11 1013.9 1013.8 0.0
26/09:30am 26.7 26.5 15.7 51 6.7 SE 11 17 6 9 1013.6 1013.5 0.0
26/09:00am 25.7 25.4 15.4 53 6.2 SE 11 17 6 9 1013.2 1013.1 0.0
26/08:30am 24.5 23.8 14.3 53 6.0 SSE 11 19 6 10 1012.9 1012.8 0.0
26/08:00am 23.9 22.9 14.6 56 5.5 SSE 13 22 7 12 1012.9 1012.8 0.0
26/07:30am 22.9 22.6 15.5 63 4.4 SSE 11 19 6 10 1012.3 1012.2 0.0
26/07:00am 22.8 22.9 16.6 68 3.8 SSE 11 17 6 9 1011.9 1011.8 0.0
26/06:30am 23.3 24.6 18.4 74 3.1 SSE 9 13 5 7 1011.4 1011.3 0.0
26/06:00am 23.6 26.0 20.9 85 1.8 SSE 9 13 5 7 1011.2 1011.1 0.0
26/05:30am 23.7 26.7 22.0 90 1.1 SSE 9 13 5 7 1011.1 1011.0 0.0
26/05:00am 23.7 27.4 22.5 93 0.8 SSE 7 9 4 5 1011.1 1011.0 0.0
26/04:30am 23.4 27.5 22.2 93 0.8 SSE 4 7 2 4 1011.2 1011.1 0.0
26/04:00am 23.6 27.3 22.2 92 0.9 SSE 6 7 3 4 1011.1 1011.0 0.0
26/03:30am 23.7 27.3 22.3 92 0.9 S 7 9 4 5 1011.0 1010.9 0.0
26/03:00am 23.9 27.8 22.5 92 0.9 S 6 7 3 4 1011.0 1010.9 0.0
26/02:30am 24.2 28.1 22.6 91 1.1 S 6 7 3 4 1011.2 1011.1 0.0
26/02:00am 24.4 28.4 22.7 90 1.1 S 6 7 3 4 1011.5 1011.4 0.0
26/01:30am 24.6 28.4 22.7 89 1.3 S 7 9 4 5 1011.7 1011.6 0.0
26/01:00am 24.7 28.4 22.6 88 1.4 S 7 9 4 5 1012.0 1011.9 0.0
26/12:30am 24.6 28.3 22.5 88 1.4 S 7 9 4 5 1012.1 1012.0 0.0
26/12:00am 24.8 28.5 22.5 87 1.5 S 7 9 4 5 1012.1 1012.0 0.0
 
Date/Time
CST
Tmp

°C
App
Tmp
°C
Dew
Point
°C
Rel
Hum
%
Delta-T

°C
Wind Press
QNH
hPa
Press
MSL
hPa
Rain
since
9 am
mm
Dir
 
Spd
km/h
Gust
km/h
Spd
kts
Gust
kts
25/11:30pm 25.0 28.9 22.5 86 1.7 S 6 9 3 5 1012.0 1011.9 0.0
25/11:00pm 25.3 29.0 22.6 85 1.8 S 7 9 4 5 1012.2 1012.1 0.0
25/10:30pm 25.4 29.2 22.7 85 1.8 S 7 11 4 6 1012.4 1012.3 0.0
25/10:00pm 25.6 29.5 22.5 83 2.1 SSW 6 7 3 4 1012.2 1012.1 0.0
25/09:30pm 27.2 31.4 21.7 72 3.7 NE 2 4 1 2 1012.0 1011.9 0.0
25/09:00pm 29.4 32.2 21.6 63 5.2 NE 9 13 5 7 1011.6 1011.5 0.0
25/08:30pm 29.3 32.1 22.3 66 4.7 NNE 11 15 6 8 1011.4 1011.3 0.0
25/08:00pm 29.4 32.6 22.4 66 4.8 NE 9 13 5 7 1010.9 1010.8 0.0
25/07:30pm 29.4 32.5 22.9 68 4.4 NE 11 17 6 9 1010.4 1010.3 0.0
25/07:00pm 29.4 32.5 22.9 68 4.4 NE 11 15 6 8 1010.2 1010.1 0.0
25/06:30pm 29.5 32.0 22.5 66 4.8 NNE 13 19 7 10 1009.6 1009.5 0.0
25/06:00pm 30.0 33.0 22.7 65 5.0 NNE 11 20 6 11 1009.4 1009.3 0.0
25/05:30pm 30.5 33.5 22.7 63 5.3 NNE 11 17 6 9 1009.2 1009.1 0.0
25/05:00pm 31.0 33.6 22.0 58 6.1 NNE 11 17 6 9 1008.9 1008.8 0.0
25/04:30pm 31.4 34.3 22.4 59 6.1 NE 11 17 6 9 1008.6 1008.5 0.0
25/04:00pm 31.7 35.1 22.7 59 6.2 NNE 9 15 5 8 1008.7 1008.6 0.0
25/03:30pm 30.9 34.4 23.5 64 5.1 NNE 11 19 6 10 1008.6 1008.5 0.0
25/03:00pm 31.1 33.9 23.0 62 5.6 NNE 13 17 7 9 1008.9 1008.8 0.0
25/02:30pm 30.8 34.2 24.0 67 4.7 NNE 13 19 7 10 1009.3 1009.2 0.0
25/02:00pm 31.2 35.9 24.3 66 4.8 NNE 7 11 4 6 1009.5 1009.4 0.0
25/01:30pm 31.6 35.9 23.7 63 5.5 NE 7 11 4 6 1009.9 1009.8 0.0
25/01:00pm 31.8 36.6 24.4 65 5.2 NE 7 9 4 5 1010.1 1010.0 0.0
25/12:30pm 32.0 36.7 24.3 63 5.4 NE 7 11 4 6 1010.5 1010.4 0.0
25/12:00pm 31.4 36.2 24.5 67 4.8 ENE 7 9 4 5 1010.7 1010.6 0.0
25/11:30am 31.0 34.8 23.4 64 5.2 E 9 15 5 8 1011.0 1010.9 0.0
25/11:00am 30.9 34.7 22.8 62 5.5 E 7 15 4 8 1011.4 1011.3 0.0
25/10:30am 30.4 33.9 22.8 64 5.2 ESE 9 15 5 8 1011.6 1011.5 0.0
25/10:00am 29.4 32.5 22.9 68 4.4 ESE 11 17 6 9 1011.5 1011.4 0.0
25/09:30am 29.4 32.7 22.6 67 4.6 ESE 9 19 5 10 1011.2 1011.1 0.0
25/09:00am 29.0 32.0 22.0 66 4.7 ESE 9 15 5 8 1011.0 1010.9 0.0
25/08:30am 27.8 31.3 22.1 71 3.8 SE 7 9 4 5 1010.9 1010.8 0.0
25/08:00am 26.6 29.1 21.1 72 3.6 SE 9 13 5 7 1010.5 1010.4 0.0
25/07:30am 25.4 27.6 20.4 74 3.3 SSE 9 13 5 7 1010.4 1010.3 0.0
25/07:00am 25.1 27.3 19.7 72 3.5 SE 7 13 4 7 1009.9 1009.8 0.0
25/06:30am 24.9 27.4 20.2 75 3.1 SE 7 13 4 7 1009.8 1009.7 0.0
25/06:00am 24.8 27.1 19.8 74 3.2 SE 7 11 4 6 1009.5 1009.4 0.0
25/05:30am 24.9 26.7 18.8 69 3.9 SSE 7 11 4 6 1009.4 1009.3 0.0
25/05:00am 24.5 26.7 19.6 74 3.2 SSE 7 11 4 6 1009.5 1009.4 0.0
25/04:30am 24.3 26.6 19.8 76 2.9 S 7 11 4 6 1009.6 1009.5 0.0
25/04:00am 24.9 27.1 19.7 73 3.4 SSW 7 11 4 6 1009.7 1009.6 0.0
25/03:30am 25.1 27.9 20.4 75 3.1 SSW 6 9 3 5 1009.9 1009.8 0.0
25/03:00am 25.4 28.9 21.9 81 2.3 SSW 6 9 3 5 1009.8 1009.7 0.0
25/02:30am 25.6 29.2 22.1 81 2.3 SSW 6 7 3 4 1009.8 1009.7 0.0
25/02:00am 26.1 29.7 22.0 78 2.7 SSW 6 9 3 5 1009.8 1009.7 0.0
25/01:30am 25.6 29.7 22.3 82 2.2 SSW 4 6 2 3 1010.1 1010.0 0.0
25/01:00am 25.7 29.3 22.0 80 2.5 SSW 6 7 3 4 1010.5 1010.4 0.0
25/12:30am 25.8 29.9 22.3 81 2.4 SSW 4 6 2 3 1010.7 1010.6 0.0
25/12:00am 25.9 30.1 22.4 81 2.4 SW 4 6 2 3 1010.9 1010.8 0.0
 
Date/Time
CST
Tmp

°C
App
Tmp
°C
Dew
Point
°C
Rel
Hum
%
Delta-T

°C
Wind Press
QNH
hPa
Press
MSL
hPa
Rain
since
9 am
mm
Dir
 
Spd
km/h
Gust
km/h
Spd
kts
Gust
kts
24/11:30pm 26.1 30.9 22.8 82 2.2 SW 2 4 1 2 1011.2 1011.1 0.0

Latest Capital City Observations: Canberra | Sydney | Melbourne | Brisbane | Adelaide | Perth | Hobart | Darwin

Other Formats:

Comma delimited format used in spreadsheet applications
http://www.bom.gov.au/fwo/IDD60901/IDD60901.99510.axf

JavaScript Object Notation format (JSON) in row-major order
http://www.bom.gov.au/fwo/IDD60901/IDD60901.99510.json